createdAt,value
2022-09-24T00:02:54.563Z,7.20
2022-09-24T00:07:56.240Z,7.10
2022-09-24T00:12:57.985Z,7.10
2022-09-24T00:17:59.515Z,7.00
2022-09-24T00:23:01.199Z,7.00
2022-09-24T00:28:02.941Z,6.90
2022-09-24T00:33:04.469Z,6.90
2022-09-24T00:38:06.145Z,6.80
2022-09-24T00:43:07.682Z,6.80
2022-09-24T00:48:09.333Z,6.70
2022-09-24T00:53:11.086Z,6.70
2022-09-24T00:58:12.621Z,6.80
2022-09-24T01:03:14.286Z,6.70
2022-09-24T01:08:16.036Z,6.70
2022-09-24T01:13:17.575Z,6.60
2022-09-24T01:18:19.115Z,6.60
2022-09-24T01:23:20.679Z,6.70
2022-09-24T01:28:22.257Z,6.70
2022-09-24T01:33:23.857Z,6.60
2022-09-24T01:38:25.671Z,6.60
2022-09-24T01:43:27.425Z,6.70
2022-09-24T01:48:29.158Z,6.60
2022-09-24T01:53:30.769Z,6.60
2022-09-24T01:58:32.316Z,6.60
2022-09-24T02:03:34.104Z,6.60
2022-09-24T02:08:35.847Z,6.60
2022-09-24T02:13:37.367Z,6.60
2022-09-24T02:18:39.052Z,6.60
2022-09-24T02:23:40.782Z,6.60
2022-09-24T02:28:42.529Z,6.50
2022-09-24T02:33:44.061Z,6.50
2022-09-24T02:38:45.731Z,6.60
2022-09-24T02:43:47.464Z,6.60
2022-09-24T02:48:49.260Z,6.60
2022-09-24T02:53:50.990Z,6.70
2022-09-24T02:58:52.758Z,6.70
2022-09-24T03:03:54.516Z,6.80
2022-09-24T03:08:56.244Z,6.80
2022-09-24T03:13:58.001Z,6.80
2022-09-24T03:18:59.757Z,6.90
2022-09-24T03:24:01.583Z,6.90
2022-09-24T03:29:03.293Z,6.90
2022-09-24T03:34:05.092Z,6.90
2022-09-24T03:39:06.765Z,7.00
2022-09-24T03:44:08.599Z,7.00
2022-09-24T03:49:10.299Z,7.00
2022-09-24T03:54:12.181Z,7.00
2022-09-24T03:59:13.816Z,7.00
2022-09-24T04:04:15.571Z,7.00
2022-09-24T04:09:17.114Z,7.00
2022-09-24T04:14:18.758Z,7.00
2022-09-24T04:19:20.498Z,7.00
2022-09-24T04:24:22.279Z,7.00
2022-09-24T04:29:23.969Z,7.00
2022-09-24T04:34:25.773Z,7.00
2022-09-24T04:39:27.531Z,7.00
2022-09-24T04:44:29.438Z,7.10
2022-09-24T04:49:31.023Z,7.10
2022-09-24T04:54:32.564Z,7.10
2022-09-24T04:59:34.226Z,7.10
2022-09-24T05:04:35.767Z,7.20
2022-09-24T05:09:37.446Z,7.20
2022-09-24T05:14:39.180Z,7.20
2022-09-24T05:19:40.955Z,7.30
2022-09-24T05:24:42.692Z,7.40
2022-09-24T05:29:44.432Z,7.40
2022-09-24T05:34:46.209Z,7.40
2022-09-24T05:39:47.741Z,7.50
2022-09-24T05:44:52.247Z,7.50
2022-09-24T05:49:54.292Z,7.60
2022-09-24T05:54:56.054Z,7.70
2022-09-24T05:59:57.682Z,7.80
2022-09-24T06:04:59.203Z,7.90
2022-09-24T06:10:01.009Z,8.00
2022-09-24T06:15:02.713Z,8.20
2022-09-24T06:20:04.487Z,8.30
2022-09-24T06:25:06.231Z,8.40
2022-09-24T06:30:07.991Z,8.60
2022-09-24T06:35:09.752Z,8.80
2022-09-24T06:40:11.521Z,8.90
2022-09-24T06:45:13.245Z,9.10
2022-09-24T06:50:14.993Z,9.40
2022-09-24T06:55:16.799Z,9.70
2022-09-24T07:00:18.523Z,9.90
2022-09-24T07:05:20.046Z,10.30
2022-09-24T07:10:21.698Z,10.70
2022-09-24T07:15:23.474Z,11.00
2022-09-24T07:20:25.211Z,11.30
2022-09-24T07:25:26.972Z,11.50
2022-09-24T07:30:28.712Z,11.70
2022-09-24T07:35:30.472Z,11.80
2022-09-24T07:40:32.362Z,12.00
2022-09-24T07:45:33.980Z,12.20
2022-09-24T07:50:35.738Z,12.40
2022-09-24T07:55:37.264Z,12.60
2022-09-24T08:00:38.942Z,12.70
2022-09-24T08:05:40.702Z,13.10
2022-09-24T08:10:42.433Z,13.50
2022-09-24T08:15:44.258Z,13.80
2022-09-24T08:20:45.946Z,14.00
2022-09-24T08:25:47.710Z,14.20
2022-09-24T08:30:49.523Z,14.50
2022-09-24T08:35:51.218Z,14.80
2022-09-24T08:40:52.797Z,15.00
2022-09-24T08:45:54.428Z,15.20
2022-09-24T08:50:56.208Z,15.40
2022-09-24T08:55:57.810Z,15.70
2022-09-24T09:00:59.343Z,15.90
2022-09-24T09:06:00.885Z,16.30
2022-09-24T09:11:02.554Z,16.60
2022-09-24T09:16:04.369Z,16.80
2022-09-24T09:21:06.070Z,17.20
2022-09-24T09:26:07.626Z,17.60
2022-09-24T09:31:09.228Z,18.00
2022-09-24T09:36:10.771Z,18.10
2022-09-24T09:41:12.472Z,18.20
2022-09-24T09:46:14.064Z,18.10
2022-09-24T09:51:19.938Z,18.20
2022-09-24T09:56:23.615Z,18.30
2022-09-24T10:01:25.464Z,18.30
2022-09-24T10:06:27.197Z,18.50
2022-09-24T10:11:28.922Z,18.50
2022-09-24T10:16:30.542Z,18.40
2022-09-24T10:21:32.141Z,18.60
2022-09-24T10:26:33.893Z,18.80
2022-09-24T10:31:35.659Z,19.10
2022-09-24T10:36:37.419Z,19.10
2022-09-24T10:41:39.152Z,19.20
2022-09-24T10:46:40.990Z,19.20
2022-09-24T10:51:42.672Z,19.50
2022-09-24T10:56:46.628Z,19.50
2022-09-24T11:01:48.501Z,19.60
2022-09-24T11:06:50.115Z,19.80
2022-09-24T11:11:51.844Z,19.90
2022-09-24T11:16:53.642Z,19.70
2022-09-24T11:21:55.395Z,19.60
2022-09-24T11:26:57.118Z,19.50
2022-09-24T11:31:58.946Z,19.50
2022-09-24T11:37:00.633Z,19.50
2022-09-24T11:42:02.409Z,19.70
2022-09-24T11:47:04.242Z,20.00
2022-09-24T11:52:05.909Z,20.10
2022-09-24T11:57:07.448Z,20.40
2022-09-24T12:02:09.160Z,20.50
2022-09-24T12:07:10.858Z,20.30
2022-09-24T12:12:12.390Z,20.10
2022-09-24T12:17:13.957Z,20.00
2022-09-24T12:22:15.470Z,20.10
2022-09-24T12:27:17.256Z,20.30
2022-09-24T12:32:19.060Z,20.60
2022-09-24T12:37:20.753Z,20.50
2022-09-24T12:42:22.510Z,20.70
2022-09-24T12:47:24.083Z,20.80
2022-09-24T12:52:25.711Z,20.70
2022-09-24T12:57:27.475Z,20.80
2022-09-24T13:02:29.328Z,20.80
2022-09-24T13:07:30.973Z,20.60
2022-09-24T13:12:32.749Z,20.00
2022-09-24T13:17:34.459Z,19.90
2022-09-24T13:22:35.961Z,20.00
2022-09-24T13:27:37.556Z,20.00
2022-09-24T13:32:39.104Z,19.80
2022-09-24T13:37:40.862Z,19.90
2022-09-24T13:42:42.614Z,19.90
2022-09-24T13:47:44.120Z,19.90
2022-09-24T13:52:45.802Z,20.00
2022-09-24T13:57:47.378Z,20.20
2022-09-24T14:02:49.094Z,20.30
2022-09-24T14:07:50.779Z,20.40
2022-09-24T14:12:52.314Z,20.50
2022-09-24T14:17:53.934Z,20.60
2022-09-24T14:22:55.733Z,20.70
2022-09-24T14:27:57.461Z,20.60
2022-09-24T14:32:58.998Z,20.70
2022-09-24T14:38:00.547Z,20.70
2022-09-24T14:43:02.066Z,20.60
2022-09-24T14:48:03.876Z,20.60
2022-09-24T14:53:05.648Z,20.50
2022-09-24T14:58:07.391Z,20.50
2022-09-24T15:03:09.174Z,20.40
2022-09-24T15:08:10.850Z,20.50
2022-09-24T15:13:12.380Z,20.30
2022-09-24T15:18:14.090Z,20.40
2022-09-24T15:23:15.823Z,20.50
2022-09-24T15:28:17.585Z,20.30
2022-09-24T15:33:19.131Z,20.00
2022-09-24T15:38:20.799Z,19.90
2022-09-24T15:43:22.551Z,20.00
2022-09-24T15:48:24.341Z,19.80
2022-09-24T15:53:26.019Z,19.50
2022-09-24T15:58:27.769Z,19.20
2022-09-24T16:03:29.577Z,18.90
2022-09-24T16:08:31.340Z,18.60
2022-09-24T16:13:33.054Z,18.30
2022-09-24T16:18:34.802Z,18.10
2022-09-24T16:23:36.580Z,17.90
2022-09-24T16:28:38.330Z,17.90
2022-09-24T16:33:40.118Z,17.90
2022-09-24T16:38:41.744Z,17.80
2022-09-24T16:43:43.658Z,17.60
2022-09-24T16:48:45.277Z,17.20
2022-09-24T16:53:49.027Z,16.80
2022-09-24T16:58:51.015Z,16.50
2022-09-24T17:03:52.795Z,16.20
2022-09-24T17:08:54.343Z,15.80
2022-09-24T17:13:55.856Z,15.50
2022-09-24T17:18:57.406Z,15.30
2022-09-24T17:23:59.132Z,15.10
2022-09-24T17:29:00.701Z,14.90
2022-09-24T17:34:02.221Z,14.60
2022-09-24T17:39:03.838Z,14.50
2022-09-24T17:44:05.605Z,14.30
2022-09-24T17:49:07.465Z,14.20
2022-09-24T17:54:09.462Z,14.10
2022-09-24T17:59:11.318Z,14.00
2022-09-24T18:04:12.975Z,13.80
2022-09-24T18:09:14.729Z,13.70
2022-09-24T18:14:16.497Z,13.50
2022-09-24T18:19:18.235Z,13.40
2022-09-24T18:24:19.986Z,13.20
2022-09-24T18:29:21.769Z,13.10
2022-09-24T18:34:23.472Z,13.00
2022-09-24T18:39:25.827Z,12.90
2022-09-24T18:44:27.632Z,12.90
2022-09-24T18:49:29.407Z,12.80
2022-09-24T18:54:31.146Z,12.70
2022-09-24T18:59:32.922Z,12.60
2022-09-24T19:04:34.644Z,12.50
2022-09-24T19:09:36.418Z,12.30
2022-09-24T19:14:38.232Z,12.10
2022-09-24T19:19:39.916Z,12.00
2022-09-24T19:24:41.643Z,11.80
2022-09-24T19:29:43.285Z,11.70
2022-09-24T19:34:45.177Z,11.50
2022-09-24T19:39:46.924Z,11.40
2022-09-24T19:44:48.677Z,11.20
2022-09-24T19:49:50.421Z,11.10
2022-09-24T19:54:52.179Z,11.10
2022-09-24T19:59:53.921Z,11.00
2022-09-24T20:04:55.735Z,10.90
2022-09-24T20:09:57.432Z,10.70
2022-09-24T20:14:59.161Z,10.60
2022-09-24T20:20:00.754Z,10.40
2022-09-24T20:25:02.349Z,10.30
2022-09-24T20:30:04.091Z,10.30
2022-09-24T20:35:05.609Z,10.20
2022-09-24T20:40:07.373Z,10.20
2022-09-24T20:45:09.037Z,10.10
2022-09-24T20:50:10.575Z,9.90
2022-09-24T20:55:12.077Z,9.80
2022-09-24T21:00:13.670Z,9.60
2022-09-24T21:05:15.426Z,9.70
2022-09-24T21:10:17.173Z,9.70
2022-09-24T21:15:18.945Z,9.70
2022-09-24T21:20:20.680Z,9.60
2022-09-24T21:25:52.313Z,9.50
2022-09-24T21:30:44.296Z,9.50
2022-09-24T21:35:45.990Z,9.40
2022-09-24T21:40:47.536Z,9.30
2022-09-24T21:45:49.221Z,9.30
2022-09-24T21:50:50.948Z,9.30
2022-09-24T21:55:52.704Z,9.20
2022-09-24T22:00:54.474Z,9.10
2022-09-24T22:05:56.214Z,8.90
2022-09-24T22:10:57.747Z,8.70
2022-09-24T22:15:59.398Z,8.60
2022-09-24T22:21:01.166Z,8.50
2022-09-24T22:26:02.904Z,8.40
2022-09-24T22:31:04.563Z,8.30
2022-09-24T22:36:06.424Z,8.20
2022-09-24T22:41:07.957Z,8.10
2022-09-24T22:46:09.683Z,8.00
2022-09-24T22:51:11.332Z,7.90
2022-09-24T22:56:12.859Z,7.90
2022-09-24T23:01:14.670Z,7.90
2022-09-24T23:06:16.210Z,7.80
2022-09-24T23:11:17.763Z,7.70
2022-09-24T23:16:19.601Z,7.70
2022-09-24T23:21:21.259Z,7.70
2022-09-24T23:26:23.023Z,7.60
2022-09-24T23:31:24.538Z,7.60
2022-09-24T23:36:26.232Z,7.50
2022-09-24T23:41:27.968Z,7.50
2022-09-24T23:46:29.558Z,7.60
2022-09-24T23:51:31.171Z,7.70
2022-09-24T23:56:32.709Z,7.80
